WMKK METAR and TAF | Updated Today

WMKK METAR

Kuala Lumpur International Airport

Observation time: 10 min. ago

WMKK 061930Z 00000KT 9999 FEW030 26/23 Q1008 NOSIG

Need help? Read our tutorial on how to read METARs or read the parsed version below.

Kuala Lumpur International Airport (WMKK) METAR

  • Weather conditions on Thu, 06 Oct 2022 19:30:00 +0000 (10 min. ago):
  • Present conditions: Dry
  • Clouds: A few at 914 meters
  • Visibility: Greater than 10 km
  • Wind: Calm
  • Temperature: 26 celsius
  • Dew point: 23 celsius
  • Pressure: 1008 millibars
  • Remarks: None


Useful to know...

WMKK TAF

Kuala Lumpur International Airport

TAF WMKK 061700Z 0618/0800 VRB03KT 9999 FEW010 TEMPO 0619/0700 4000 TSRA FEW016CB SCT027
Observation time: 2:40 hr. ago
Need help? Read our tutorial on how to read TAFs or read the parsed version below.

Parsed version of TAF for Kuala Lumpur International Airport (WMKK)

  • From 06 October at 18:00 UTC, to day 08 of the month at 00:00 UTC
  • Clouds: A few at 305 meters
  • Visibility: Greater than 10 km
  • Wind: Variable at 3
  • Expected to arise temporarily, from 06 October at 19:00 UTC, to day 07 of the month at 00:00 UTC
  • Clouds: A few at 488 meters, cumulonimbus; scattered at 823 meters
  • Visibility: 4000 meters
  • Other: Thunderstorms rain